Time;durP1;ratioP1;P1;durP2;ratioP2;P2;SDS_P1;SDS_P2;PMS_P1;PMS_P2;Temp;Humidity;BMP_temperature;BMP_pressure;BME280_temperature;BME280_humidity;BME280_pressure;Samples;Min_cycle;Max_cycle;Signal;HPM_P1;HPM_P2
2022/11/16 00:02:50;;;;;;;40.50;24.33;;;14.30;99.90;;;;;;5050813;28;20044;-70
2022/11/16 00:06:00;;;;;;;39.95;24.45;;;14.50;99.90;;;;;;5051057;28;20068;-70
2022/11/16 00:09:22;;;;;;;33.60;22.98;;;14.60;99.90;;;;;;5050852;28;20075;-69
2022/11/16 00:12:26;;;;;;;28.38;18.58;;;14.50;99.90;;;;;;5050815;28;20067;-69
2022/11/16 00:15:30;;;;;;;27.33;17.92;;;14.60;99.90;;;;;;5051124;28;20048;-70
2022/11/16 00:18:34;;;;;;;32.92;16.58;;;14.70;99.90;;;;;;5050773;28;20068;-69
2022/11/16 00:21:39;;;;;;;25.30;16.65;;;14.80;99.90;;;;;;5050902;28;20048;-69
2022/11/16 00:24:43;;;;;;;25.30;17.35;;;14.90;99.90;;;;;;5050825;28;20072;-70
2022/11/16 00:27:46;;;;;;;25.05;16.65;;;14.90;99.90;;;;;;5050403;28;20059;-69
2022/11/16 00:30:58;;;;;;;22.23;15.55;;;14.90;99.90;;;;;;5050308;28;20052;-69
2022/11/16 00:34:02;;;;;;;21.27;14.77;;;14.90;99.90;;;;;;5049905;28;20048;-70
2022/11/16 00:37:06;;;;;;;22.48;14.07;;;15.00;99.90;;;;;;5050531;28;20056;-69
2022/11/16 00:40:11;;;;;;;22.67;14.20;;;14.90;99.90;;;;;;5050598;28;20048;-68
2022/11/16 00:43:15;;;;;;;20.63;12.43;;;15.00;99.90;;;;;;5052948;28;20052;-68
2022/11/16 00:46:20;;;;;;;22.25;13.52;;;15.10;99.90;;;;;;5054301;28;20500;-69
2022/11/16 00:49:24;;;;;;;17.65;13.38;;;15.10;99.90;;;;;;5053085;28;20495;-68
2022/11/16 00:52:28;;;;;;;16.73;11.70;;;15.10;99.90;;;;;;5052946;28;20052;-68
2022/11/16 00:55:33;;;;;;;16.90;12.45;;;15.10;99.90;;;;;;5054334;28;20392;-68
2022/11/16 00:58:38;;;;;;;18.60;12.55;;;15.10;99.90;;;;;;5053200;28;20048;-69
2022/11/16 01:01:45;;;;;;;20.38;11.88;;;15.10;99.90;;;;;;5052971;28;20048;-68
2022/11/16 01:04:49;;;;;;;17.35;11.68;;;15.00;99.90;;;;;;5053512;28;20040;-69
2022/11/16 01:07:53;;;;;;;16.35;11.13;;;15.20;99.90;;;;;;5052685;28;20400;-69
2022/11/16 01:12:07;;;;;;;13.60;9.52;;;15.20;99.90;;;;;;5053399;28;20040;-69
2022/11/16 01:14:21;;;;;;;13.05;9.15;;;15.20;99.90;;;;;;5053566;28;20044;-69
2022/11/16 01:17:26;;;;;;;15.07;9.60;;;15.30;99.90;;;;;;5052744;28;20044;-70
2022/11/16 01:20:30;;;;;;;14.15;9.40;;;15.30;99.90;;;;;;5053423;28;20048;-69
2022/11/16 01:23:33;;;;;;;14.68;9.50;;;15.30;99.90;;;;;;5053716;28;20068;-68
2022/11/16 01:26:37;;;;;;;14.13;8.63;;;15.40;99.90;;;;;;5053306;28;20407;-69
2022/11/16 01:29:42;;;;;;;13.38;8.90;;;15.40;99.90;;;;;;5052355;28;20040;-69
2022/11/16 01:32:46;;;;;;;11.50;8.57;;;15.40;99.90;;;;;;5052738;28;20523;-69
2022/11/16 01:35:51;;;;;;;13.52;8.43;;;15.50;99.90;;;;;;5052620;28;20040;-69
2022/11/16 01:38:55;;;;;;;13.70;9.05;;;15.40;99.90;;;;;;5052169;28;20043;-69
2022/11/16 01:42:04;;;;;;;10.98;7.72;;;15.40;99.90;;;;;;5052402;28;20044;-69
2022/11/16 01:45:17;;;;;;;9.98;7.35;;;15.40;99.90;;;;;;5052161;28;20044;-69
2022/11/16 01:48:26;;;;;;;6.60;4.55;;;15.40;99.90;;;;;;5052096;28;20048;-69
2022/11/16 01:51:32;;;;;;;5.05;3.15;;;15.50;99.90;;;;;;5051950;28;20052;-69
2022/11/16 01:54:45;;;;;;;4.38;3.10;;;15.60;99.90;;;;;;5050710;28;20056;-69
2022/11/16 01:57:49;;;;;;;7.30;2.90;;;15.80;99.90;;;;;;5052722;28;20043;-68
2022/11/16 02:00:54;;;;;;;6.43;2.90;;;16.00;99.90;;;;;;5052916;28;20036;-69
2022/11/16 02:04:21;;;;;;;5.80;3.20;;;16.00;99.90;;;;;;5052610;28;20389;-69
2022/11/16 02:09:52;;;;;;;9.00;3.15;;;16.10;99.90;;;;;;5052001;28;20047;-69
2022/11/16 02:11:44;;;;;;;5.63;2.90;;;16.10;99.90;;;;;;5051728;28;20040;-69
2022/11/16 02:15:17;;;;;;;6.53;3.03;;;16.20;99.90;;;;;;5050065;28;20452;-68
2022/11/16 02:18:43;;;;;;;9.00;3.10;;;16.20;99.90;;;;;;5039218;28;20048;-68
2022/11/16 02:21:59;;;;;;;;;;;16.20;99.90;;;;;;5052082;28;20051;-68
2022/11/16 02:25:07;;;;;;;5.38;2.90;;;16.20;99.90;;;;;;5052070;28;19935;-69
2022/11/16 02:28:50;;;;;;;4.22;2.80;;;16.20;99.90;;;;;;5051515;28;20044;-68
2022/11/16 08:29:16;;;;;;;10.90;3.22;;;16.10;99.90;;;;;;1640197;28;21035;-61
2022/11/16 08:32:28;;;;;;;6.80;3.30;;;16.00;99.90;;;;;;4966338;28;20058;-60
2022/11/16 08:35:34;;;;;;;5.55;3.20;;;16.00;99.90;;;;;;4956299;29;20481;-60
2022/11/16 08:38:40;;;;;;;5.80;2.88;;;16.00;99.90;;;;;;4955341;29;20054;-60
2022/11/16 08:41:44;;;;;;;5.90;2.63;;;16.00;99.90;;;;;;4966649;28;20046;-59
2022/11/16 08:44:49;;;;;;;6.32;2.70;;;16.00;99.90;;;;;;4955093;29;20074;-59
2022/11/16 08:47:56;;;;;;;5.50;3.13;;;16.00;99.90;;;;;;4966066;28;20050;-59
2022/11/16 08:51:12;;;;;;;5.72;4.18;;;16.00;99.90;;;;;;4966073;28;20050;-59
2022/11/16 08:54:18;;;;;;;11.07;4.57;;;16.00;99.90;;;;;;4966281;28;20521;-59
2022/11/16 08:57:22;;;;;;;10.88;4.55;;;16.00;99.90;;;;;;4966192;28;20046;-60
2022/11/16 09:00:31;;;;;;;7.65;3.90;;;16.00;99.90;;;;;;4966318;28;20047;-60
2022/11/16 09:03:39;;;;;;;8.95;4.00;;;16.00;99.90;;;;;;4955037;28;20046;-60
2022/11/16 09:06:44;;;;;;;6.72;3.65;;;16.00;99.90;;;;;;4955821;29;20058;-59
2022/11/16 09:09:48;;;;;;;6.60;4.18;;;15.90;99.90;;;;;;4955699;29;20046;-60
2022/11/16 09:12:52;;;;;;;6.53;3.75;;;15.90;99.90;;;;;;4955674;29;20062;-59
2022/11/16 09:16:00;;;;;;;8.90;5.25;;;16.00;99.90;;;;;;4955841;29;20502;-59
2022/11/16 09:19:05;;;;;;;16.02;13.35;;;16.00;99.90;;;;;;4955611;29;20680;-59
2022/11/16 09:22:09;;;;;;;8.52;4.80;;;16.00;99.90;;;;;;4955318;29;20054;-61
2022/11/16 09:25:13;;;;;;;5.70;3.65;;;16.00;99.90;;;;;;4955412;29;20042;-59
2022/11/16 09:28:18;;;;;;;7.95;5.15;;;16.00;99.90;;;;;;4955329;29;20066;-59
2022/11/16 09:31:26;;;;;;;10.20;4.80;;;16.10;99.90;;;;;;4985178;28;20049;-59
2022/11/16 09:34:29;;;;;;;9.02;5.00;;;16.10;99.90;;;;;;4994305;28;20049;-59
2022/11/16 09:37:33;;;;;;;9.55;4.75;;;16.00;99.90;;;;;;4993952;28;20041;-58
2022/11/16 09:40:41;;;;;;;11.98;7.00;;;16.00;99.90;;;;;;4993867;28;20050;-59
2022/11/16 09:43:49;;;;;;;9.38;6.05;;;16.00;99.90;;;;;;4993044;28;20489;-59
2022/11/16 09:46:57;;;;;;;5.78;4.20;;;16.00;99.90;;;;;;4992767;28;20065;-59
2022/11/16 09:50:04;;;;;;;7.28;4.35;;;16.00;99.90;;;;;;4993539;28;20045;-58
2022/11/16 09:53:15;;;;;;;7.85;4.78;;;16.00;99.90;;;;;;4993612;28;20065;-58
2022/11/16 09:56:22;;;;;;;10.90;7.47;;;16.00;99.90;;;;;;4993518;28;20045;-58
2022/11/16 09:59:44;;;;;;;7.82;5.15;;;16.00;99.90;;;;;;4993569;28;20394;-59
2022/11/16 10:03:12;;;;;;;10.05;5.15;;;16.00;99.90;;;;;;4993448;28;20041;-59
2022/11/16 10:06:26;;;;;;;6.25;4.10;;;16.00;99.90;;;;;;4997163;28;20046;-60
2022/11/16 10:09:30;;;;;;;8.68;4.05;;;16.00;99.90;;;;;;4993175;28;20046;-59
2022/11/16 10:13:02;;;;;;;5.40;3.95;;;16.00;99.90;;;;;;4994118;28;20061;-60
2022/11/16 10:16:39;;;;;;;7.00;4.65;;;16.00;99.90;;;;;;4992358;28;20045;-60
2022/11/16 10:19:53;;;;;;;9.70;5.30;;;16.00;99.90;;;;;;4992916;28;20500;-60
2022/11/16 10:23:18;;;;;;;8.93;4.68;;;16.00;99.90;;;;;;4992372;28;20053;-59
2022/11/16 10:26:29;;;;;;;9.20;4.35;;;16.00;99.90;;;;;;4992959;28;20501;-61
2022/11/16 10:29:52;;;;;;;10.20;5.20;;;16.10;99.90;;;;;;4992820;28;20041;-60
2022/11/16 10:33:01;;;;;;;7.57;5.35;;;16.10;99.90;;;;;;4992678;28;20057;-59
2022/11/16 10:36:12;;;;;;;7.28;4.00;;;16.00;99.90;;;;;;4992060;28;20050;-59
2022/11/16 10:39:18;;;;;;;;;;;16.10;99.90;;;;;;4993116;28;20044;-60
2022/11/16 10:42:35;;;;;;;6.75;5.10;;;16.10;99.90;;;;;;4992887;28;19974;-59
2022/11/16 10:45:46;;;;;;;5.85;4.38;;;16.10;99.90;;;;;;4992503;28;20045;-59
2022/11/16 10:48:56;;;;;;;7.00;4.85;;;16.10;99.90;;;;;;4992495;28;20045;-60
2022/11/16 10:52:01;;;;;;;6.65;5.20;;;16.10;99.90;;;;;;4992633;28;20667;-60
2022/11/16 10:55:13;;;;;;;10.57;9.20;;;16.10;99.90;;;;;;4992512;28;20054;-60
2022/11/16 10:58:17;;;;;;;19.50;17.63;;;16.20;99.90;;;;;;4992497;28;20057;-60
2022/11/16 11:01:40;;;;;;;10.82;9.73;;;16.10;99.90;;;;;;4992189;28;20512;-60
2022/11/16 11:05:02;;;;;;;12.07;7.22;;;16.20;99.90;;;;;;4992130;28;20049;-60
2022/11/16 11:08:10;;;;;;;10.13;8.68;;;16.20;99.90;;;;;;4992308;28;20505;-60
2022/11/16 11:15:01;;;;;;;12.90;8.65;;;16.10;99.90;;;;;;4991704;28;20061;-60
2022/11/16 11:18:11;;;;;;;;;;;16.10;99.90;;;;;;4992642;28;20057;-59
2022/11/16 11:21:23;;;;;;;12.77;9.60;;;16.10;99.90;;;;;;4992137;28;19917;-59
2022/11/16 11:24:33;;;;;;;11.10;8.27;;;16.10;99.90;;;;;;4992055;28;20520;-59
2022/11/16 11:27:37;;;;;;;12.48;9.63;;;16.10;99.90;;;;;;4991816;28;20049;-60
2022/11/16 11:30:59;;;;;;;13.65;8.23;;;16.00;99.90;;;;;;4991598;28;20425;-60
2022/11/16 11:34:09;;;;;;;11.88;8.27;;;16.00;99.90;;;;;;4991570;28;20059;-60
2022/11/16 11:37:22;;;;;;;11.65;8.50;;;16.00;99.90;;;;;;4991600;28;20042;-60
2022/11/16 11:40:27;;;;;;;12.85;9.23;;;16.00;99.90;;;;;;4991646;28;20038;-59
2022/11/16 11:43:34;;;;;;;14.00;10.10;;;16.00;99.90;;;;;;4991429;28;20061;-59
2022/11/16 11:46:43;;;;;;;14.10;10.90;;;16.00;99.90;;;;;;4991632;28;20045;-59
2022/11/16 11:49:52;;;;;;;15.52;10.85;;;15.90;99.90;;;;;;5001776;28;20497;-60
2022/11/16 11:53:14;;;;;;;16.88;10.25;;;15.90;99.90;;;;;;4991269;28;20061;-60
2022/11/16 11:56:18;;;;;;;;;;;15.90;99.90;;;;;;4991858;28;20053;-60
2022/11/16 11:59:25;;;;;;;13.88;9.55;;;15.90;99.90;;;;;;4991316;28;20012;-59
2022/11/16 12:03:07;;;;;;;12.57;9.57;;;16.00;99.90;;;;;;4991603;28;20065;-59
2022/11/16 12:06:30;;;;;;;13.57;9.88;;;16.10;99.90;;;;;;4991399;28;20050;-60
2022/11/16 12:09:42;;;;;;;10.65;8.88;;;16.10;99.90;;;;;;4991433;28;20057;-61
2022/11/16 12:12:47;;;;;;;10.57;8.00;;;16.10;99.90;;;;;;4991491;28;20049;-60
2022/11/16 12:16:09;;;;;;;9.57;7.20;;;16.20;99.90;;;;;;4991314;28;20057;-60
2022/11/16 12:19:38;;;;;;;11.15;6.95;;;16.20;99.90;;;;;;4991298;28;20402;-59
2022/11/16 12:22:51;;;;;;;11.02;6.75;;;16.20;99.90;;;;;;4991501;28;20049;-59
2022/11/16 12:26:06;;;;;;;6.28;5.68;;;16.30;99.90;;;;;;4991287;28;20037;-60
2022/11/16 12:29:39;;;;;;;8.15;5.15;;;16.30;99.90;;;;;;4991133;28;20054;-59
2022/11/16 12:32:55;;;;;;;8.38;6.60;;;16.30;99.90;;;;;;4991195;28;20066;-59
2022/11/16 12:36:33;;;;;;;7.50;5.95;;;16.30;99.90;;;;;;4991340;28;20042;-58
2022/11/16 12:40:00;;;;;;;10.82;5.90;;;16.40;99.90;;;;;;4994229;28;20037;-59
2022/11/16 12:43:22;;;;;;;9.82;5.50;;;16.50;99.90;;;;;;4990061;28;20114;-59
2022/11/16 12:47:05;;;;;;;8.13;5.80;;;16.50;99.90;;;;;;4994799;28;20049;-60
2022/11/16 12:50:40;;;;;;;8.65;5.63;;;16.60;99.90;;;;;;4995100;28;20049;-59
2022/11/16 12:53:59;;;;;;;5.88;4.90;;;16.70;99.90;;;;;;4994692;28;20058;-60
2022/11/16 12:57:32;;;;;;;6.95;4.75;;;16.80;99.90;;;;;;4994695;28;20048;-59
2022/11/16 13:01:15;;;;;;;8.32;4.57;;;16.90;99.90;;;;;;4994750;28;20058;-59
2022/11/16 13:04:34;;;;;;;3.95;3.42;;;17.00;99.90;;;;;;4994364;28;20045;-60
2022/11/16 13:07:45;;;;;;;7.22;4.47;;;17.00;99.90;;;;;;4994548;28;20052;-60
2022/11/16 13:10:53;;;;;;;7.93;4.93;;;17.00;99.90;;;;;;4994492;28;20394;-62
2022/11/16 13:14:02;;;;;;;11.80;5.65;;;17.10;99.90;;;;;;4994381;28;20505;-61
2022/11/16 13:17:06;;;;;;;9.18;5.43;;;17.10;99.90;;;;;;4994444;28;20057;-62
2022/11/16 13:20:43;;;;;;;6.22;5.57;;;17.20;99.90;;;;;;4994573;28;20520;-60
2022/11/16 13:24:11;;;;;;;10.27;5.97;;;17.20;99.90;;;;;;4994120;28;20504;-61
2022/11/16 13:27:36;;;;;;;6.00;5.05;;;17.20;99.90;;;;;;4994393;28;20053;-61
2022/11/16 13:30:57;;;;;;;6.43;5.45;;;17.20;99.90;;;;;;4993959;28;20108;-59
2022/11/16 13:34:23;;;;;;;8.77;5.93;;;17.20;99.90;;;;;;4993881;28;20057;-60
2022/11/16 13:37:37;;;;;;;8.40;6.20;;;17.20;99.90;;;;;;4993812;28;20041;-60
2022/11/16 13:40:41;;;;;;;8.57;6.32;;;17.10;99.90;;;;;;4992790;28;20050;-60
2022/11/16 13:43:49;;;;;;;11.43;7.60;;;17.10;99.90;;;;;;4993015;28;20053;-62
2022/11/16 13:47:03;;;;;;;11.35;7.95;;;17.20;99.90;;;;;;4993543;28;20394;-61
2022/11/16 13:50:28;;;;;;;10.75;8.45;;;17.20;99.90;;;;;;4993477;28;20061;-62
2022/11/16 13:53:32;;;;;;;13.60;8.80;;;17.20;99.90;;;;;;4993488;28;20516;-60
2022/11/16 13:56:48;;;;;;;15.68;9.40;;;17.20;99.90;;;;;;4993366;28;20049;-60
2022/11/16 14:00:08;;;;;;;12.45;9.50;;;17.30;99.90;;;;;;4992960;28;20046;-62
2022/11/16 14:03:14;;;;;;;13.93;9.95;;;17.40;99.90;;;;;;4993483;28;20045;-61
2022/11/16 14:06:18;;;;;;;13.10;10.02;;;17.40;99.90;;;;;;4993440;28;20509;-60
2022/11/16 14:09:44;;;;;;;16.52;9.65;;;17.50;99.90;;;;;;4992007;28;20535;-60
2022/11/16 14:12:53;;;;;;;16.00;10.70;;;17.50;99.90;;;;;;4993305;28;20037;-60
2022/11/16 14:16:28;;;;;;;19.10;11.25;;;17.60;99.90;;;;;;4992902;28;20045;-60
2022/11/16 14:19:47;;;;;;;15.15;10.95;;;17.60;99.90;;;;;;4993852;28;20041;-61
2022/11/16 14:23:10;;;;;;;17.88;11.13;;;17.60;99.90;;;;;;4992977;28;20061;-61
2022/11/16 14:26:55;;;;;;;20.67;12.38;;;17.60;99.90;;;;;;4992463;28;20049;-61
2022/11/16 14:30:17;;;;;;;20.27;12.02;;;17.60;99.90;;;;;;4937843;28;20419;-61
2022/11/16 14:33:33;;;;;;;22.42;12.98;;;17.50;99.90;;;;;;5002944;28;20057;-63
2022/11/16 14:36:42;;;;;;;18.42;13.98;;;17.50;99.90;;;;;;4992928;28;20041;-66
2022/11/16 14:39:52;;;;;;;22.33;14.50;;;17.50;99.90;;;;;;4992769;28;20041;-62
2022/11/16 14:43:06;;;;;;;25.23;15.85;;;17.50;99.90;;;;;;4992356;28;20046;-61
2022/11/16 14:46:33;;;;;;;24.38;14.40;;;17.50;99.90;;;;;;4992165;28;20393;-63
2022/11/16 14:49:40;;;;;;;22.60;15.82;;;17.50;99.90;;;;;;4992251;28;20073;-65
2022/11/16 14:52:48;;;;;;;22.65;14.95;;;17.40;99.90;;;;;;4992519;28;20045;-65
2022/11/16 14:56:03;;;;;;;26.33;13.13;;;17.40;99.90;;;;;;4992237;28;20113;-63
2022/11/16 14:59:16;;;;;;;22.05;14.65;;;17.40;99.90;;;;;;4991662;28;20505;-61
2022/11/16 15:02:26;;;;;;;29.58;17.77;;;17.30;99.90;;;;;;4991719;28;20076;-61
2022/11/16 15:05:34;;;;;;;24.63;16.30;;;17.30;99.90;;;;;;4991917;28;20061;-62
2022/11/16 15:08:47;;;;;;;;;;;17.30;99.90;;;;;;4992327;28;20172;-61
2022/11/16 15:15:17;;;;;;;27.10;16.00;;;17.30;99.90;;;;;;4991912;28;20054;-61
2022/11/16 15:18:23;;;;;;;34.40;18.23;;;17.30;99.90;;;;;;4992044;28;20254;-61
2022/11/16 15:21:28;;;;;;;29.80;17.05;;;17.30;99.90;;;;;;4991137;28;20053;-60
2022/11/16 15:24:33;;;;;;;29.50;19.27;;;17.20;99.90;;;;;;4992013;28;20046;-61
2022/11/16 15:27:41;;;;;;;34.53;21.10;;;17.20;99.90;;;;;;4991820;28;20061;-61
2022/11/16 15:31:03;;;;;;;36.13;21.07;;;17.20;99.90;;;;;;4991639;28;20062;-62
2022/11/16 15:34:11;;;;;;;30.40;20.10;;;17.20;99.90;;;;;;4991717;28;20053;-61
2022/11/16 15:37:26;;;;;;;29.52;20.98;;;17.20;99.90;;;;;;4991967;28;20041;-60
2022/11/16 15:40:31;;;;;;;45.90;29.55;;;17.20;99.90;;;;;;4991612;28;20069;-63
2022/11/16 15:43:38;;;;;;;49.78;31.70;;;17.20;99.90;;;;;;4991720;28;20037;-62
2022/11/16 15:46:53;;;;;;;36.55;23.58;;;17.20;99.90;;;;;;4991763;28;20045;-60
2022/11/16 15:49:57;;;;;;;31.42;21.15;;;17.20;99.90;;;;;;4991458;28;20038;-61
2022/11/16 15:53:01;;;;;;;38.05;22.15;;;17.10;99.90;;;;;;4991592;28;20406;-61
2022/11/16 15:56:09;;;;;;;32.75;21.27;;;17.10;99.90;;;;;;4991702;28;20497;-60
2022/11/16 15:59:38;;;;;;;35.50;23.08;;;17.10;99.90;;;;;;4991023;28;20057;-61
2022/11/16 16:02:43;;;;;;;34.95;22.05;;;17.10;99.90;;;;;;4991447;28;20046;-60
2022/11/16 16:05:48;;;;;;;40.25;24.95;;;17.10;99.90;;;;;;4991061;28;20054;-60
2022/11/16 16:09:04;;;;;;;34.83;24.70;;;17.10;99.90;;;;;;4991528;28;20393;-60
2022/11/16 16:12:26;;;;;;;38.78;25.35;;;17.10;99.90;;;;;;4991002;28;20041;-60
2022/11/16 16:15:32;;;;;;;44.78;27.00;;;17.10;99.90;;;;;;4994987;28;20045;-61
2022/11/16 16:18:44;;;;;;;37.83;24.95;;;17.10;99.90;;;;;;4995335;28;20057;-60
2022/11/16 16:21:48;;;;;;;;;;;17.10;99.90;;;;;;4995589;28;20041;-61
2022/11/16 16:24:52;;;;;;;34.80;20.67;;;17.10;99.90;;;;;;4994953;28;19917;-60
2022/11/16 16:27:59;;;;;;;32.83;14.77;;;17.10;99.90;;;;;;4995429;28;20053;-61
2022/11/16 16:31:03;;;;;;;28.75;12.48;;;17.20;99.90;;;;;;4994978;28;20081;-61
2022/11/16 16:34:10;;;;;;;22.08;9.95;;;17.20;99.90;;;;;;4994978;28;20061;-62
2022/11/16 16:37:14;;;;;;;21.90;9.73;;;17.30;99.90;;;;;;4994677;28;20045;-63
2022/11/16 16:40:19;;;;;;;19.13;9.23;;;17.30;99.90;;;;;;4995168;28;20049;-64
2022/11/16 16:43:22;;;;;;;23.25;11.68;;;17.30;99.90;;;;;;4994528;28;20045;-69
2022/11/16 16:46:26;;;;;;;32.85;15.52;;;17.30;99.90;;;;;;4994511;28;20050;-62
2022/11/16 16:49:30;;;;;;;24.98;13.93;;;17.30;99.90;;;;;;4994110;28;20049;-61
2022/11/16 16:52:34;;;;;;;29.25;14.27;;;17.30;99.90;;;;;;4994593;28;20073;-60
2022/11/16 16:55:39;;;;;;;29.20;15.38;;;17.30;99.90;;;;;;4994452;28;20394;-62
2022/11/16 16:58:43;;;;;;;39.88;18.15;;;17.30;99.90;;;;;;4994369;28;20057;-63
2022/11/16 17:01:48;;;;;;;39.17;19.30;;;17.30;99.90;;;;;;4994520;28;20065;-60
2022/11/16 17:04:52;;;;;;;38.63;18.77;;;17.20;99.90;;;;;;4994359;28;20050;-62
2022/11/16 17:07:56;;;;;;;35.55;18.80;;;17.20;99.90;;;;;;4994015;28;20150;-59
2022/11/16 17:11:01;;;;;;;28.30;16.25;;;17.20;99.90;;;;;;4994245;28;20053;-60
2022/11/16 17:14:06;;;;;;;37.05;18.35;;;17.20;99.90;;;;;;4993863;28;20058;-60
2022/11/16 17:17:11;;;;;;;27.55;15.65;;;17.20;99.90;;;;;;4994080;28;20049;-62
2022/11/16 17:20:16;;;;;;;26.60;16.70;;;17.20;99.90;;;;;;4994244;28;20049;-61
2022/11/16 17:23:19;;;;;;;44.78;20.63;;;17.20;99.90;;;;;;4993921;28;20497;-61
2022/11/16 17:26:27;;;;;;;47.17;22.83;;;17.20;99.90;;;;;;4993724;28;20050;-62
2022/11/16 17:29:31;;;;;;;42.90;21.80;;;17.30;99.90;;;;;;5004066;28;20049;-60
2022/11/16 17:32:35;;;;;;;28.38;19.25;;;17.30;99.90;;;;;;5004450;28;20046;-67
2022/11/16 17:35:40;;;;;;;45.00;21.02;;;17.20;99.90;;;;;;4993407;28;20402;-64
2022/11/16 17:38:44;;;;;;;37.60;20.98;;;17.20;99.90;;;;;;4993747;28;20061;-65
2022/11/16 17:41:48;;;;;;;34.78;18.15;;;17.30;99.90;;;;;;4993924;28;20046;-62
2022/11/16 17:44:54;;;;;;;35.88;18.75;;;17.30;99.90;;;;;;4993348;28;20057;-62
2022/11/16 17:47:58;;;;;;;27.83;16.05;;;17.30;99.90;;;;;;4993561;28;20053;-69
2022/11/16 17:51:02;;;;;;;34.38;19.10;;;17.30;99.90;;;;;;5004066;28;20059;-70
2022/11/16 17:54:06;;;;;;;38.17;18.25;;;17.30;99.90;;;;;;4991050;28;20057;-70
2022/11/16 17:57:10;;;;;;;36.70;19.67;;;17.20;99.90;;;;;;4991592;28;20046;-69
2022/11/16 18:00:15;;;;;;;42.47;21.02;;;17.20;99.90;;;;;;5002587;28;20049;-69
2022/11/16 18:03:19;;;;;;;36.20;19.75;;;17.30;99.90;;;;;;4992650;28;20041;-69
2022/11/16 18:06:24;;;;;;;42.13;21.80;;;17.30;99.90;;;;;;4992560;28;20053;-69
2022/11/16 18:09:28;;;;;;;38.95;21.42;;;17.30;99.90;;;;;;4993149;28;20647;-69
2022/11/16 18:12:32;;;;;;;50.60;24.48;;;17.30;99.90;;;;;;4993360;28;20045;-69
2022/11/16 18:15:37;;;;;;;42.60;22.85;;;17.30;99.90;;;;;;4993165;28;20605;-69
2022/11/16 18:18:42;;;;;;;42.47;22.85;;;17.30;99.90;;;;;;4993437;28;20091;-69
2022/11/16 18:21:47;;;;;;;53.60;24.65;;;17.30;99.90;;;;;;5003692;28;20045;-69
2022/11/16 18:24:52;;;;;;;38.00;22.75;;;17.20;99.90;;;;;;4993039;28;20406;-69
2022/11/16 18:27:56;;;;;;;46.45;25.23;;;17.20;99.90;;;;;;4993332;28;20061;-69
2022/11/16 18:31:05;;;;;;;55.83;30.85;;;17.20;99.90;;;;;;4992876;28;20504;-69
2022/11/16 18:34:14;;;;;;;51.55;28.67;;;17.20;99.90;;;;;;5003058;28;20062;-69
2022/11/16 18:37:18;;;;;;;57.83;29.08;;;17.20;99.90;;;;;;4992183;28;20347;-68
2022/11/16 18:40:24;;;;;;;66.80;28.88;;;17.20;99.90;;;;;;4992625;28;20041;-68
2022/11/16 18:43:28;;;;;;;60.97;33.00;;;17.20;99.90;;;;;;4992733;28;20045;-68
2022/11/16 18:46:32;;;;;;;73.70;38.65;;;17.20;99.90;;;;;;4992327;28;20049;-68
2022/11/16 18:49:36;;;;;;;57.97;31.50;;;17.10;99.90;;;;;;4991711;28;20369;-68
2022/11/16 18:52:43;;;;;;;62.10;34.08;;;17.10;99.90;;;;;;4991613;28;20053;-68
2022/11/16 18:55:50;;;;;;;67.45;34.05;;;17.10;99.90;;;;;;4992708;28;20050;-68
2022/11/16 18:58:57;;;;;;;53.80;29.77;;;17.10;99.90;;;;;;4992175;28;20041;-69
2022/11/16 19:02:01;;;;;;;63.33;34.45;;;17.10;99.90;;;;;;4992623;28;20049;-69
2022/11/16 19:05:06;;;;;;;70.18;41.08;;;17.10;99.90;;;;;;4992391;28;20049;-69
2022/11/16 19:08:10;;;;;;;63.42;37.00;;;17.10;99.90;;;;;;4992199;28;20057;-70
2022/11/16 19:11:15;;;;;;;75.45;40.15;;;17.10;99.90;;;;;;5002801;28;20052;-70
2022/11/16 19:14:19;;;;;;;61.10;37.40;;;17.10;99.90;;;;;;4991034;28;20081;-70
2022/11/16 19:17:23;;;;;;;70.22;40.97;;;17.00;99.90;;;;;;4992369;28;20061;-70
2022/11/16 19:20:27;;;;;;;58.30;38.30;;;17.00;99.90;;;;;;4992072;28;20046;-70
2022/11/16 19:23:44;;;;;;;57.42;37.13;;;17.00;99.90;;;;;;4992135;28;20521;-70
2022/11/16 19:26:48;;;;;;;64.93;40.55;;;17.00;99.90;;;;;;4991876;28;20045;-70
2022/11/16 19:29:52;;;;;;;71.25;42.65;;;17.00;99.90;;;;;;4992005;28;20316;-71
2022/11/16 19:32:58;;;;;;;67.95;38.85;;;17.00;99.90;;;;;;4992019;28;20497;-69
2022/11/16 19:36:16;;;;;;;56.35;34.90;;;17.00;99.90;;;;;;4992381;28;20078;-69
2022/11/16 19:39:20;;;;;;;65.30;38.90;;;17.00;99.90;;;;;;4991573;28;20046;-69
2022/11/16 19:42:24;;;;;;;50.42;30.38;;;17.00;99.90;;;;;;4991652;28;20398;-70
2022/11/16 19:45:28;;;;;;;45.55;16.25;;;17.00;99.90;;;;;;4991505;28;20123;-70
2022/11/16 19:48:33;;;;;;;29.60;12.10;;;17.10;99.90;;;;;;4991510;28;20049;-70
2022/11/16 19:51:37;;;;;;;35.35;11.05;;;17.10;99.90;;;;;;4991824;28;20053;-70
2022/11/16 19:54:41;;;;;;;24.90;7.95;;;17.20;99.90;;;;;;4991368;28;20057;-70
2022/11/16 19:57:45;;;;;;;25.85;8.05;;;17.20;99.90;;;;;;4991454;28;20046;-70
2022/11/16 20:00:49;;;;;;;17.58;6.10;;;17.20;99.90;;;;;;4991634;28;20049;-70
2022/11/16 20:03:55;;;;;;;15.52;6.05;;;17.30;99.90;;;;;;4991876;28;20053;-70
2022/11/16 20:06:59;;;;;;;20.70;6.68;;;17.30;99.90;;;;;;4991941;28;20051;-70
2022/11/16 20:10:07;;;;;;;20.85;7.50;;;17.20;99.90;;;;;;4991431;28;20505;-70
2022/11/16 20:13:11;;;;;;;17.15;6.32;;;17.30;99.90;;;;;;4991745;28;20053;-70
2022/11/16 20:16:17;;;;;;;18.38;7.07;;;17.20;99.90;;;;;;4991587;28;20390;-70
2022/11/16 20:19:20;;;;;;;20.10;6.63;;;17.20;99.90;;;;;;4991703;28;20049;-70
2022/11/16 20:22:24;;;;;;;20.20;6.10;;;17.20;99.90;;;;;;4991317;28;20045;-70
2022/11/16 20:25:28;;;;;;;22.13;6.72;;;17.20;99.90;;;;;;4991568;28;20041;-70
2022/11/16 20:28:37;;;;;;;13.85;5.43;;;17.20;99.90;;;;;;4991483;28;20049;-70
2022/11/16 20:31:44;;;;;;;19.85;6.32;;;17.20;99.90;;;;;;4991163;28;20437;-70
2022/11/16 20:34:48;;;;;;;16.92;5.10;;;17.20;99.90;;;;;;4991160;28;20053;-70
2022/11/16 20:37:52;;;;;;;22.00;6.32;;;17.20;99.90;;;;;;4991227;28;20046;-70
2022/11/16 20:40:56;;;;;;;15.43;5.45;;;17.20;99.90;;;;;;4991282;28;20394;-70
2022/11/16 20:44:01;;;;;;;20.27;5.72;;;17.30;99.90;;;;;;4991521;28;20057;-70
2022/11/16 20:47:05;;;;;;;16.75;5.35;;;17.20;99.90;;;;;;4991108;28;20046;-70
2022/11/16 20:50:09;;;;;;;22.70;6.45;;;17.30;99.90;;;;;;5001563;28;20049;-70
2022/11/16 20:53:13;;;;;;;19.38;5.40;;;17.30;99.90;;;;;;4991188;28;20046;-69
2022/11/16 20:56:18;;;;;;;14.88;5.25;;;17.30;99.90;;;;;;4990912;28;20057;-69
2022/11/16 20:59:22;;;;;;;12.48;5.22;;;17.30;99.90;;;;;;4992009;28;20049;-69
2022/11/16 21:02:26;;;;;;;14.82;5.65;;;17.30;99.90;;;;;;4994875;28;20390;-69
2022/11/16 21:05:30;;;;;;;13.43;5.50;;;17.30;99.90;;;;;;5005001;28;20045;-69
2022/11/16 21:08:36;;;;;;;16.67;5.97;;;17.30;99.90;;;;;;4994539;28;20069;-69
2022/11/16 21:15:03;;;;;;;24.30;7.80;;;17.40;99.90;;;;;;4994271;28;20398;-69
2022/11/16 21:18:07;;;;;;;16.17;6.72;;;17.40;99.90;;;;;;4994136;28;20045;-69
2022/11/16 21:21:13;;;;;;;20.95;6.18;;;17.40;99.90;;;;;;4994203;28;20045;-69
2022/11/16 21:24:17;;;;;;;20.52;6.28;;;17.40;99.90;;;;;;4993948;28;20053;-70
2022/11/16 21:27:21;;;;;;;33.97;8.18;;;17.50;99.90;;;;;;4993931;28;20037;-69
2022/11/16 21:30:25;;;;;;;22.20;7.15;;;17.50;99.90;;;;;;4994102;28;20069;-69
2022/11/16 21:33:29;;;;;;;24.55;7.68;;;17.50;99.90;;;;;;4994027;28;20041;-69
2022/11/16 21:36:34;;;;;;;21.73;7.47;;;17.50;99.90;;;;;;4994028;28;20049;-69
2022/11/16 21:39:38;;;;;;;25.08;7.63;;;17.50;99.90;;;;;;4994348;28;20049;-69
2022/11/16 21:42:43;;;;;;;21.85;5.90;;;17.50;99.90;;;;;;4994068;28;20049;-69
2022/11/16 21:45:47;;;;;;;20.08;6.00;;;17.50;99.90;;;;;;4993657;28;20394;-70
2022/11/16 21:48:54;;;;;;;18.23;5.38;;;17.60;99.90;;;;;;4993670;28;20041;-69
2022/11/16 21:51:58;;;;;;;14.68;4.93;;;17.60;99.90;;;;;;4994157;28;20497;-69
2022/11/16 21:55:03;;;;;;;17.27;4.82;;;17.60;99.90;;;;;;4993555;28;20057;-69
2022/11/16 21:58:07;;;;;;;20.60;5.28;;;17.60;99.90;;;;;;4994073;28;20046;-69
2022/11/16 22:01:14;;;;;;;16.65;4.53;;;17.60;99.90;;;;;;4992930;28;20038;-69
2022/11/16 22:07:41;;;;;;;18.65;5.60;;;17.60;99.90;;;;;;4993325;28;20049;-69
2022/11/16 22:10:50;;;;;;;14.68;4.85;;;17.60;99.90;;;;;;4993492;28;20057;-69
2022/11/16 22:13:54;;;;;;;15.40;5.82;;;17.60;99.90;;;;;;4993298;28;20397;-69
2022/11/16 22:16:58;;;;;;;16.20;5.90;;;17.60;99.90;;;;;;4993325;28;20049;-69
2022/11/16 22:20:02;;;;;;;16.55;6.00;;;17.60;99.90;;;;;;4993453;28;20057;-69
2022/11/16 22:23:06;;;;;;;27.02;9.00;;;17.60;99.90;;;;;;4992996;28;20045;-69
2022/11/16 22:26:11;;;;;;;18.40;6.55;;;17.50;99.90;;;;;;4992942;28;20037;-69